Time;durP1;ratioP1;P1;durP2;ratioP2;P2;SDS_P1;SDS_P2;PMS_P1;PMS_P2;Temp;Humidity;BMP_temperature;BMP_pressure;BME280_temperature;BME280_humidity;BME280_pressure;Samples;Min_cycle;Max_cycle;Signal;HPM_P1;HPM_P2
2024/03/20 00:00:20;;;;;;;7.70;3.85;;;;;;;;;;6131749;28;20056;-82
2024/03/20 00:03:26;;;;;;;7.72;4.85;;;;;;;;;;6162728;28;20047;-83
2024/03/20 00:06:32;;;;;;;3.15;2.00;;;;;;;;;;6130432;28;20047;-82
2024/03/20 00:09:34;;;;;;;4.85;3.40;;;;;;;;;;6149590;28;20085;-82
2024/03/20 00:12:35;;;;;;;4.95;2.92;;;;;;;;;;6169050;28;20039;-83
2024/03/20 00:15:37;;;;;;;5.10;3.00;;;;;;;;;;6149364;28;20456;-82
2024/03/20 00:18:40;;;;;;;3.97;2.70;;;;;;;;;;6160220;28;20042;-83
2024/03/20 00:21:41;;;;;;;7.90;4.22;;;;;;;;;;6148474;28;20050;-82
2024/03/20 00:24:42;;;;;;;7.18;4.00;;;;;;;;;;6164279;28;20189;-82
2024/03/20 00:27:44;;;;;;;9.63;4.18;;;;;;;;;;6133625;28;20058;-82
2024/03/20 00:30:46;;;;;;;12.05;4.40;;;;;;;;;;6150749;28;20051;-82
2024/03/20 00:33:48;;;;;;;6.80;4.03;;;;;;;;;;6142526;28;20676;-82
2024/03/20 00:36:49;;;;;;;5.28;3.30;;;;;;;;;;6146503;28;20045;-82
2024/03/20 00:39:51;;;;;;;5.03;3.40;;;;;;;;;;6133941;28;20077;-83
2024/03/20 00:42:53;;;;;;;14.45;4.30;;;;;;;;;;6162731;28;20047;-83
2024/03/20 00:45:54;;;;;;;4.45;2.75;;;;;;;;;;6123677;28;20054;-83
2024/03/20 00:48:56;;;;;;;6.20;3.17;;;;;;;;;;6096612;28;20441;-83
2024/03/20 00:51:58;;;;;;;4.38;2.42;;;;;;;;;;6140759;28;20050;-82
2024/03/20 00:55:00;;;;;;;7.45;4.53;;;;;;;;;;6124128;28;20071;-82
2024/03/20 00:58:01;;;;;;;4.20;2.47;;;;;;;;;;6105310;28;20051;-82
2024/03/20 01:01:03;;;;;;;4.15;2.67;;;;;;;;;;6112770;28;20058;-82
2024/03/20 01:04:04;;;;;;;5.65;3.65;;;;;;;;;;6091446;28;20598;-83
2024/03/20 01:07:07;;;;;;;7.82;3.58;;;;;;;;;;6124993;29;20710;-82
2024/03/20 01:10:08;;;;;;;4.68;3.08;;;;;;;;;;6074153;28;20051;-83
2024/03/20 01:13:10;;;;;;;5.18;3.30;;;;;;;;;;6136062;28;20047;-82
2024/03/20 01:16:13;;;;;;;6.30;3.95;;;;;;;;;;6126138;29;20051;-82
2024/03/20 01:19:14;;;;;;;7.68;3.85;;;;;;;;;;6104202;28;20062;-82
2024/03/20 01:22:16;;;;;;;4.45;3.55;;;;;;;;;;6116957;29;20419;-82
2024/03/20 01:25:19;;;;;;;5.13;3.78;;;;;;;;;;6120267;28;20090;-82
2024/03/20 01:28:27;;;;;;;6.20;4.25;;;;;;;;;;6119311;29;20142;-82
2024/03/20 01:31:28;;;;;;;7.55;4.00;;;;;;;;;;6123557;28;20047;-82
2024/03/20 01:34:30;;;;;;;6.65;3.60;;;;;;;;;;6112023;28;20034;-82
2024/03/20 01:37:32;;;;;;;7.20;4.25;;;;;;;;;;6105813;29;20592;-83
2024/03/20 01:40:34;;;;;;;8.00;4.65;;;;;;;;;;6101499;28;20051;-83
2024/03/20 01:43:37;;;;;;;9.35;4.65;;;;;;;;;;6160104;28;20464;-83
2024/03/20 01:46:40;;;;;;;6.45;4.38;;;;;;;;;;6140832;28;20061;-82
2024/03/20 01:49:41;;;;;;;8.77;6.78;;;;;;;;;;6158232;28;20062;-81
2024/03/20 01:52:54;;;;;;;5.15;3.42;;;;;;;;;;6113447;28;20061;-82
2024/03/20 01:55:56;;;;;;;5.60;3.47;;;;;;;;;;6160485;28;20563;-82
2024/03/20 01:58:58;;;;;;;5.10;3.03;;;;;;;;;;6144420;28;20046;-82
2024/03/20 02:02:00;;;;;;;7.13;4.30;;;;;;;;;;6143027;28;20046;-81
2024/03/20 02:05:01;;;;;;;7.90;4.47;;;;;;;;;;6143086;28;20050;-82
2024/03/20 02:08:05;;;;;;;5.25;4.03;;;;;;;;;;6156700;28;20054;-82
2024/03/20 02:11:06;;;;;;;9.05;3.03;;;;;;;;;;6147668;28;20054;-81
2024/03/20 02:14:08;;;;;;;5.82;3.35;;;;;;;;;;6159047;28;20046;-83
2024/03/20 02:17:13;;;;;;;6.80;5.68;;;;;;;;;;6156777;28;20480;-82
2024/03/20 02:20:14;;;;;;;6.22;3.78;;;;;;;;;;6141933;28;20592;-82
2024/03/20 02:23:15;;;;;;;6.68;3.08;;;;;;;;;;6127427;28;20058;-82
2024/03/20 02:26:17;;;;;;;18.17;5.50;;;;;;;;;;6142413;28;20070;-81
2024/03/20 02:29:18;;;;;;;7.22;4.68;;;;;;;;;;6124312;28;20058;-81
2024/03/20 02:32:20;;;;;;;8.48;4.65;;;;;;;;;;6137241;28;20042;-81
2024/03/20 02:35:21;;;;;;;6.18;4.20;;;;;;;;;;6125076;28;20046;-81
2024/03/20 02:38:23;;;;;;;6.63;3.45;;;;;;;;;;6127809;28;20050;-80
2024/03/20 02:41:27;;;;;;;8.05;3.22;;;;;;;;;;6127388;28;20069;-81
2024/03/20 02:44:28;;;;;;;7.50;3.85;;;;;;;;;;6141967;28;20042;-81
2024/03/20 02:47:29;;;;;;;5.38;3.08;;;;;;;;;;6137295;28;20142;-81
2024/03/20 02:50:31;;;;;;;4.97;3.08;;;;;;;;;;6126769;28;20516;-81
2024/03/20 02:53:33;;;;;;;10.52;4.07;;;;;;;;;;6141676;28;20051;-82
2024/03/20 02:56:35;;;;;;;4.97;3.42;;;;;;;;;;6143967;28;20055;-81
2024/03/20 02:59:36;;;;;;;3.90;2.70;;;;;;;;;;6113278;28;20058;-80
2024/03/20 03:02:37;;;;;;;7.43;3.95;;;;;;;;;;6149559;28;20101;-81
2024/03/20 03:05:42;;;;;;;5.65;3.45;;;;;;;;;;6142478;28;20049;-82
2024/03/20 03:08:43;;;;;;;5.93;3.03;;;;;;;;;;6151723;28;20046;-81
2024/03/20 03:11:46;;;;;;;7.10;4.00;;;;;;;;;;6163184;28;20132;-82
2024/03/20 03:14:48;;;;;;;7.72;4.65;;;;;;;;;;6162798;28;20070;-82
2024/03/20 03:17:56;;;;;;;7.38;5.35;;;;;;;;;;6163826;28;20050;-81
2024/03/20 03:20:58;;;;;;;6.65;3.97;;;;;;;;;;6145603;28;20043;-82
2024/03/20 03:23:59;;;;;;;5.97;3.95;;;;;;;;;;6146650;28;20592;-82
2024/03/20 03:27:01;;;;;;;11.35;4.55;;;;;;;;;;6150172;28;20081;-82
2024/03/20 03:30:02;;;;;;;5.63;3.42;;;;;;;;;;6117595;28;20066;-81
2024/03/20 03:33:05;;;;;;;6.55;4.07;;;;;;;;;;6115275;28;20138;-82
2024/03/20 03:36:07;;;;;;;7.78;4.40;;;;;;;;;;6146385;28;20039;-82
2024/03/20 03:39:08;;;;;;;8.25;4.60;;;;;;;;;;6164633;28;20052;-81
2024/03/20 03:42:14;;;;;;;8.25;3.15;;;;;;;;;;6152023;28;20054;-82
2024/03/20 03:45:16;;;;;;;7.25;4.13;;;;;;;;;;6157605;28;20043;-82
2024/03/20 03:48:17;;;;;;;5.50;3.22;;;;;;;;;;6152753;28;20047;-82
2024/03/20 03:51:27;;;;;;;5.75;3.13;;;;;;;;;;6158211;28;20113;-81
2024/03/20 03:54:29;;;;;;;4.97;2.78;;;;;;;;;;6141395;28;20043;-81
2024/03/20 03:57:42;;;;;;;5.60;4.53;;;;;;;;;;6157104;28;20058;-81
2024/03/20 04:00:48;;;;;;;4.15;2.78;;;;;;;;;;6174026;28;20558;-81
2024/03/20 04:03:51;;;;;;;8.80;4.22;;;;;;;;;;6167090;28;20059;-82
2024/03/20 04:06:52;;;;;;;6.13;4.55;;;;;;;;;;6133085;28;20062;-81
2024/03/20 04:09:54;;;;;;;5.18;3.65;;;;;;;;;;6136525;28;20153;-82
2024/03/20 04:12:55;;;;;;;5.53;3.00;;;;;;;;;;6169791;28;20054;-81
2024/03/20 04:15:56;;;;;;;6.32;4.10;;;;;;;;;;6187901;28;20133;-81
2024/03/20 04:18:57;;;;;;;4.38;2.88;;;;;;;;;;6167045;28;20511;-82
2024/03/20 04:21:59;;;;;;;7.68;4.05;;;;;;;;;;6154388;28;20109;-83
2024/03/20 04:25:00;;;;;;;7.65;5.70;;;;;;;;;;6140868;28;20046;-82
2024/03/20 04:28:01;;;;;;;6.93;4.13;;;;;;;;;;6146022;28;20270;-81
2024/03/20 04:31:05;;;;;;;8.75;7.85;;;;;;;;;;6115234;28;20468;-82
2024/03/20 04:34:07;;;;;;;7.60;5.25;;;;;;;;;;6156553;28;20046;-82
2024/03/20 04:37:10;;;;;;;7.35;3.97;;;;;;;;;;6147026;28;20669;-81
2024/03/20 04:40:12;;;;;;;8.18;4.90;;;;;;;;;;6180387;28;20444;-82
2024/03/20 04:43:13;;;;;;;6.13;3.88;;;;;;;;;;6145828;28;20102;-82
2024/03/20 04:46:15;;;;;;;9.32;4.53;;;;;;;;;;6145901;28;20050;-82
2024/03/20 04:49:18;;;;;;;6.30;4.60;;;;;;;;;;6128928;28;20043;-82
2024/03/20 04:52:19;;;;;;;12.00;7.78;;;;;;;;;;6146932;28;20689;-82
2024/03/20 04:55:23;;;;;;;9.45;6.70;;;;;;;;;;6138710;28;20065;-83
2024/03/20 04:58:25;;;;;;;6.53;4.60;;;;;;;;;;6150619;28;20054;-83
2024/03/20 05:01:26;;;;;;;6.03;4.00;;;;;;;;;;6181529;28;20047;-79
2024/03/20 05:04:27;;;;;;;8.68;3.60;;;;;;;;;;6167326;28;20062;-79
2024/03/20 05:07:29;;;;;;;6.80;3.33;;;;;;;;;;6168386;28;20058;-80
2024/03/20 05:10:33;;;;;;;7.55;4.72;;;;;;;;;;6174484;28;20500;-79
2024/03/20 05:13:36;;;;;;;7.88;4.43;;;;;;;;;;6168888;28;20396;-79
2024/03/20 05:16:38;;;;;;;7.55;4.28;;;;;;;;;;6151611;28;20058;-78
2024/03/20 05:19:39;;;;;;;9.98;6.05;;;;;;;;;;6154777;28;20057;-80
2024/03/20 05:22:51;;;;;;;13.90;5.72;;;;;;;;;;6145861;28;20038;-79
2024/03/20 05:25:54;;;;;;;9.73;5.05;;;;;;;;;;6147743;28;20129;-79
2024/03/20 05:28:56;;;;;;;8.27;5.63;;;;;;;;;;6172036;28;20047;-80
2024/03/20 05:31:57;;;;;;;7.18;4.70;;;;;;;;;;6135878;28;20818;-80
2024/03/20 05:34:59;;;;;;;9.38;5.10;;;;;;;;;;6117013;28;20053;-80
2024/03/20 05:38:00;;;;;;;8.20;5.18;;;;;;;;;;6132267;28;20077;-80
2024/03/20 05:41:01;;;;;;;8.80;4.35;;;;;;;;;;6166569;28;20047;-80
2024/03/20 05:44:05;;;;;;;9.10;3.92;;;;;;;;;;6146478;28;20807;-80
2024/03/20 05:47:06;;;;;;;10.82;5.15;;;;;;;;;;6170465;28;20053;-80
2024/03/20 05:50:09;;;;;;;8.30;5.13;;;;;;;;;;6156934;28;20046;-80
2024/03/20 05:53:12;;;;;;;3.90;2.80;;;;;;;;;;6146184;28;20174;-80
2024/03/20 05:56:14;;;;;;;9.88;5.43;;;;;;;;;;6164820;28;20045;-80
2024/03/20 05:59:14;;;;;;;8.25;5.53;;;;;;;;;;6140576;28;20069;-80
2024/03/20 06:02:17;;;;;;;5.22;4.72;;;;;;;;;;6159563;28;20061;-80
2024/03/20 06:05:18;;;;;;;8.40;5.35;;;;;;;;;;6145846;28;20093;-80
2024/03/20 06:08:19;;;;;;;4.35;3.95;;;;;;;;;;6156958;28;20054;-81
2024/03/20 06:11:22;;;;;;;8.60;5.57;;;;;;;;;;6147312;28;20517;-80
2024/03/20 06:14:23;;;;;;;6.55;4.13;;;;;;;;;;6111038;28;20047;-81
2024/03/20 06:17:24;;;;;;;6.10;4.03;;;;;;;;;;6131950;28;20849;-81
2024/03/20 06:20:26;;;;;;;5.35;3.50;;;;;;;;;;6144905;28;20051;-81
2024/03/20 06:23:28;;;;;;;7.63;4.35;;;;;;;;;;6139241;28;20547;-82
2024/03/20 06:26:30;;;;;;;7.80;4.47;;;;;;;;;;6142195;28;21272;-81
2024/03/20 06:29:32;;;;;;;5.68;3.60;;;;;;;;;;6127316;28;20061;-81
2024/03/20 06:32:33;;;;;;;7.82;4.70;;;;;;;;;;6164250;28;20046;-80
2024/03/20 06:35:35;;;;;;;5.75;4.13;;;;;;;;;;6163109;28;20481;-81
2024/03/20 06:38:36;;;;;;;5.38;3.88;;;;;;;;;;6144728;28;20049;-81
2024/03/20 06:41:37;;;;;;;5.22;2.88;;;;;;;;;;6121893;28;20058;-81
2024/03/20 06:44:40;;;;;;;8.68;3.55;;;;;;;;;;6140792;28;20528;-81
2024/03/20 06:47:43;;;;;;;7.53;3.35;;;;;;;;;;6142434;28;20046;-81
2024/03/20 06:50:47;;;;;;;13.48;7.50;;;;;;;;;;6160044;28;20786;-81
2024/03/20 06:53:49;;;;;;;14.88;6.20;;;;;;;;;;6117804;28;20050;-81
2024/03/20 06:56:58;;;;;;;15.75;7.10;;;;;;;;;;6159135;28;20050;-81
2024/03/20 07:00:14;;;;;;;9.60;6.88;;;;;;;;;;6145388;28;20047;-81
2024/03/20 07:03:16;;;;;;;9.10;5.65;;;;;;;;;;6162660;28;20050;-80
2024/03/20 07:06:18;;;;;;;13.77;7.15;;;;;;;;;;6157601;28;20049;-80
2024/03/20 07:09:19;;;;;;;6.75;4.38;;;;;;;;;;6159713;28;20043;-79
2024/03/20 07:12:22;;;;;;;20.63;10.90;;;;;;;;;;6130174;28;20051;-80
2024/03/20 07:15:23;;;;;;;9.20;4.40;;;;;;;;;;6143261;28;20122;-79
2024/03/20 07:18:24;;;;;;;13.52;7.78;;;;;;;;;;6161337;28;20873;-79
2024/03/20 07:21:27;;;;;;;13.32;8.18;;;;;;;;;;6113829;28;20154;-80
2024/03/20 07:24:28;;;;;;;8.82;5.82;;;;;;;;;;6147468;28;20047;-80
2024/03/20 07:27:29;;;;;;;9.23;4.25;;;;;;;;;;6141316;28;20042;-80
2024/03/20 07:30:32;;;;;;;8.65;5.35;;;;;;;;;;6144166;28;20054;-81
2024/03/20 07:33:34;;;;;;;8.05;5.18;;;;;;;;;;6145597;28;20046;-81
2024/03/20 07:36:37;;;;;;;11.98;5.15;;;;;;;;;;6114865;28;20050;-80
2024/03/20 07:39:41;;;;;;;16.02;10.15;;;;;;;;;;6154623;28;20055;-80
2024/03/20 07:42:56;;;;;;;11.80;6.63;;;;;;;;;;6126031;28;20058;-81
2024/03/20 07:45:58;;;;;;;6.50;4.45;;;;;;;;;;6155060;29;20028;-81
2024/03/20 07:48:59;;;;;;;7.60;4.45;;;;;;;;;;6128469;28;20082;-81
2024/03/20 07:52:02;;;;;;;10.63;5.15;;;;;;;;;;6122028;28;20607;-81
2024/03/20 07:55:05;;;;;;;12.52;4.30;;;;;;;;;;6143586;28;20882;-81
2024/03/20 07:58:06;;;;;;;7.82;5.18;;;;;;;;;;6124796;28;20558;-81
2024/03/20 08:01:11;;;;;;;10.07;5.85;;;;;;;;;;6125716;29;20098;-82
2024/03/20 08:04:13;;;;;;;8.63;4.13;;;;;;;;;;6125612;28;20645;-82
2024/03/20 08:07:14;;;;;;;8.18;4.55;;;;;;;;;;6105204;29;20785;-81
2024/03/20 08:10:16;;;;;;;9.23;5.47;;;;;;;;;;6114910;28;20456;-82
2024/03/20 08:13:17;;;;;;;38.30;19.67;;;;;;;;;;6120647;28;20039;-82
2024/03/20 08:16:18;;;;;;;11.25;5.80;;;;;;;;;;6124156;29;20077;-82
2024/03/20 08:19:21;;;;;;;11.18;7.10;;;;;;;;;;6143098;28;20051;-82
2024/03/20 08:22:22;;;;;;;5.78;3.72;;;;;;;;;;6115701;29;20046;-83
2024/03/20 08:25:24;;;;;;;6.65;4.28;;;;;;;;;;6125752;28;20133;-82
2024/03/20 08:28:27;;;;;;;19.73;9.07;;;;;;;;;;6094499;29;20051;-82
2024/03/20 08:31:28;;;;;;;10.90;7.82;;;;;;;;;;6108651;29;20062;-82
2024/03/20 08:34:31;;;;;;;14.13;7.63;;;;;;;;;;6112030;29;20051;-82
2024/03/20 08:37:33;;;;;;;26.88;17.17;;;;;;;;;;6131172;29;20047;-80
2024/03/20 08:40:34;;;;;;;15.60;7.30;;;;;;;;;;6122317;28;20061;-80
2024/03/20 08:43:35;;;;;;;8.75;4.25;;;;;;;;;;6146018;28;20582;-80
2024/03/20 08:46:41;;;;;;;9.73;5.55;;;;;;;;;;6141916;28;20046;-80
2024/03/20 08:49:44;;;;;;;13.00;7.38;;;;;;;;;;6159760;28;20039;-80
2024/03/20 08:52:46;;;;;;;6.93;4.15;;;;;;;;;;6160792;28;20050;-80
2024/03/20 08:55:49;;;;;;;11.18;4.38;;;;;;;;;;6144721;28;20078;-80
2024/03/20 08:58:51;;;;;;;9.13;5.82;;;;;;;;;;6128197;28;20109;-80
2024/03/20 09:01:52;;;;;;;13.10;6.95;;;;;;;;;;6160776;28;20058;-81
2024/03/20 09:04:53;;;;;;;7.78;4.20;;;;;;;;;;6145825;28;20043;-80
2024/03/20 09:07:55;;;;;;;8.45;4.30;;;;;;;;;;6151037;28;20904;-80
2024/03/20 09:10:56;;;;;;;9.60;5.38;;;;;;;;;;6146114;28;20046;-80
2024/03/20 09:14:36;;;;;;;9.13;4.13;;;;;;;;;;6151521;28;20081;-80
2024/03/20 09:17:52;;;;;;;10.88;6.30;;;;;;;;;;6168943;28;20045;-81
2024/03/20 09:20:55;;;;;;;9.32;6.13;;;;;;;;;;6156491;28;20104;-81
2024/03/20 09:23:56;;;;;;;10.00;5.00;;;;;;;;;;6179032;28;20042;-81
2024/03/20 09:26:57;;;;;;;6.85;4.60;;;;;;;;;;6146060;28;20049;-81
2024/03/20 09:29:59;;;;;;;7.38;4.28;;;;;;;;;;6164997;28;20064;-80
2024/03/20 09:33:01;;;;;;;8.82;4.30;;;;;;;;;;6165208;28;20457;-80
2024/03/20 09:36:03;;;;;;;6.10;2.58;;;;;;;;;;6178040;28;20057;-81
2024/03/20 09:39:05;;;;;;;5.68;3.80;;;;;;;;;;6197297;28;20073;-80
2024/03/20 09:42:07;;;;;;;5.03;2.97;;;;;;;;;;6162812;28;20051;-80
2024/03/20 09:45:13;;;;;;;7.82;4.63;;;;;;;;;;6180848;28;20026;-81
2024/03/20 09:48:16;;;;;;;7.18;3.88;;;;;;;;;;6165803;28;20046;-80
2024/03/20 09:51:20;;;;;;;6.22;3.80;;;;;;;;;;6196831;28;20035;-81
2024/03/20 09:54:27;;;;;;;8.00;3.67;;;;;;;;;;6185642;28;20038;-82
2024/03/20 09:57:29;;;;;;;6.13;3.03;;;;;;;;;;6192629;28;20046;-80
2024/03/20 10:00:30;;;;;;;7.88;5.38;;;;;;;;;;6192293;28;20043;-82
2024/03/20 10:03:32;;;;;;;5.90;3.30;;;;;;;;;;6184457;28;20035;-83
2024/03/20 10:06:35;;;;;;;6.28;3.28;;;;;;;;;;6166667;28;20073;-82
2024/03/20 10:09:37;;;;;;;6.85;3.88;;;;;;;;;;6183447;28;20130;-81
2024/03/20 10:12:39;;;;;;;8.25;3.72;;;;;;;;;;6186909;28;20114;-83
2024/03/20 10:15:42;;;;;;;6.65;4.20;;;;;;;;;;6138301;28;20069;-82
2024/03/20 10:18:44;;;;;;;8.55;4.57;;;;;;;;;;6132091;28;20057;-82
2024/03/20 10:21:46;;;;;;;4.90;2.60;;;;;;;;;;6129721;28;20066;-82
2024/03/20 10:24:48;;;;;;;6.28;3.40;;;;;;;;;;6147825;28;20146;-81
2024/03/20 10:27:50;;;;;;;6.72;4.38;;;;;;;;;;6134998;28;20062;-82
2024/03/20 10:30:51;;;;;;;5.30;2.97;;;;;;;;;;6161741;28;20055;-81
2024/03/20 10:33:54;;;;;;;8.75;3.78;;;;;;;;;;6159971;28;20911;-81
2024/03/20 10:36:56;;;;;;;6.68;3.45;;;;;;;;;;6130935;28;20049;-81
2024/03/20 10:39:59;;;;;;;6.72;3.42;;;;;;;;;;6142658;28;20055;-81
2024/03/20 10:43:01;;;;;;;6.00;3.42;;;;;;;;;;6148742;28;20150;-81
2024/03/20 10:46:03;;;;;;;4.53;2.95;;;;;;;;;;6126313;28;20129;-80
2024/03/20 10:49:06;;;;;;;5.18;3.47;;;;;;;;;;6142704;28;20054;-82
2024/03/20 10:52:10;;;;;;;7.88;3.83;;;;;;;;;;6141693;28;20047;-83
2024/03/20 10:55:16;;;;;;;8.95;3.25;;;;;;;;;;6132378;28;20142;-82
2024/03/20 10:58:18;;;;;;;7.22;3.88;;;;;;;;;;6150766;28;20684;-82
2024/03/20 11:01:20;;;;;;;9.88;3.78;;;;;;;;;;6158321;28;20047;-81
2024/03/20 11:04:37;;;;;;;9.68;2.85;;;;;;;;;;6111140;28;20047;-81
2024/03/20 11:07:40;;;;;;;7.13;5.90;;;;;;;;;;6136339;28;20416;-81
2024/03/20 11:10:48;;;;;;;12.70;3.85;;;;;;;;;;6142218;28;20066;-82
2024/03/20 11:13:53;;;;;;;9.95;3.75;;;;;;;;;;6139275;28;20584;-81
2024/03/20 11:16:59;;;;;;;5.72;3.63;;;;;;;;;;6158545;28;20441;-82
2024/03/20 11:20:01;;;;;;;6.60;3.25;;;;;;;;;;6113550;28;20596;-81
2024/03/20 11:23:06;;;;;;;5.95;2.78;;;;;;;;;;6157931;28;20039;-80
2024/03/20 11:26:07;;;;;;;;;;;;;;;;;;6127854;28;20050;-82
2024/03/20 11:29:10;;;;;;;5.57;2.97;;;;;;;;;;6144210;28;19934;-82
2024/03/20 11:32:16;;;;;;;3.60;2.67;;;;;;;;;;6148422;28;20459;-82
2024/03/20 11:35:23;;;;;;;16.90;5.28;;;;;;;;;;6146741;28;20078;-81
2024/03/20 11:38:29;;;;;;;4.45;2.40;;;;;;;;;;6130877;28;20125;-82
2024/03/20 11:41:31;;;;;;;10.40;4.45;;;;;;;;;;6134309;28;20058;-83
2024/03/20 11:44:32;;;;;;;6.10;3.30;;;;;;;;;;6146938;28;20068;-83
2024/03/20 11:47:34;;;;;;;7.50;3.63;;;;;;;;;;6145706;28;20185;-82
2024/03/20 11:50:36;;;;;;;6.70;3.45;;;;;;;;;;6161179;28;20051;-83
2024/03/20 11:53:41;;;;;;;6.70;3.10;;;;;;;;;;6144616;28;20050;-82
2024/03/20 11:56:44;;;;;;;5.55;3.38;;;;;;;;;;6166927;28;20034;-82
2024/03/20 11:59:52;;;;;;;8.40;3.45;;;;;;;;;;6148092;28;20670;-83
2024/03/20 12:02:54;;;;;;;7.88;4.07;;;;;;;;;;6146764;28;20057;-82
2024/03/20 12:06:21;;;;;;;4.95;2.30;;;;;;;;;;6160773;28;20058;-82
2024/03/20 12:09:24;;;;;;;3.85;2.05;;;;;;;;;;6130744;28;20057;-84
2024/03/20 12:12:26;;;;;;;4.95;3.15;;;;;;;;;;6180363;28;20031;-83
2024/03/20 12:15:27;;;;;;;4.80;2.72;;;;;;;;;;6181000;28;20113;-83
2024/03/20 12:18:28;;;;;;;6.85;3.20;;;;;;;;;;6144737;28;20054;-83
2024/03/20 12:21:30;;;;;;;8.70;3.10;;;;;;;;;;6158125;28;20098;-83
2024/03/20 12:24:33;;;;;;;6.30;3.45;;;;;;;;;;6128143;28;20535;-83
2024/03/20 12:27:36;;;;;;;9.05;2.80;;;;;;;;;;6144977;28;20057;-83
2024/03/20 12:30:43;;;;;;;6.10;3.17;;;;;;;;;;6166420;28;20047;-82
2024/03/20 12:33:53;;;;;;;4.90;3.20;;;;;;;;;;6141211;28;20109;-83
2024/03/20 12:36:54;;;;;;;5.28;3.22;;;;;;;;;;6145271;28;20051;-83
2024/03/20 12:40:05;;;;;;;6.90;2.83;;;;;;;;;;6161600;28;20055;-82
2024/03/20 12:43:07;;;;;;;5.25;1.90;;;;;;;;;;6167960;28;20758;-83
2024/03/20 12:46:09;;;;;;;9.15;3.22;;;;;;;;;;6158524;28;20039;-83
2024/03/20 12:49:14;;;;;;;25.10;12.13;;;;;;;;;;6126916;28;20058;-83
2024/03/20 12:52:15;;;;;;;4.80;2.90;;;;;;;;;;6147643;28;20050;-83
2024/03/20 12:55:17;;;;;;;5.00;2.58;;;;;;;;;;6113394;28;20893;-82
2024/03/20 12:58:18;;;;;;;7.03;2.72;;;;;;;;;;6165141;28;20571;-83
2024/03/20 13:01:20;;;;;;;6.30;3.28;;;;;;;;;;6163257;28;20073;-82
2024/03/20 13:04:21;;;;;;;4.88;2.58;;;;;;;;;;6133574;28;20050;-81
2024/03/20 13:07:22;;;;;;;4.95;3.58;;;;;;;;;;6147069;28;20138;-82
2024/03/20 13:10:27;;;;;;;7.28;3.58;;;;;;;;;;6160383;28;20802;-83
2024/03/20 13:13:28;;;;;;;3.25;1.77;;;;;;;;;;6162680;28;20867;-82
2024/03/20 13:16:31;;;;;;;5.05;2.05;;;;;;;;;;6147650;28;20049;-82
2024/03/20 13:19:34;;;;;;;3.83;1.40;;;;;;;;;;6146384;28;20077;-83
2024/03/20 13:22:37;;;;;;;7.60;2.13;;;;;;;;;;6149035;28;20050;-82
2024/03/20 13:25:39;;;;;;;4.18;1.95;;;;;;;;;;6144052;28;20059;-83
2024/03/20 13:28:41;;;;;;;8.13;3.17;;;;;;;;;;6128996;28;20061;-83
2024/03/20 13:31:43;;;;;;;6.40;2.00;;;;;;;;;;6152911;28;20065;-84
2024/03/20 13:34:55;;;;;;;8.05;5.05;;;;;;;;;;6144733;28;20551;-83
2024/03/20 13:38:04;;;;;;;3.70;2.40;;;;;;;;;;6178237;28;20067;-83
2024/03/20 13:44:23;;;;;;;9.10;4.53;;;;;;;;;;6134750;28;20054;-83
2024/03/20 13:47:25;;;;;;;5.57;3.88;;;;;;;;;;6143973;28;20427;-84
2024/03/20 13:50:27;;;;;;;9.77;3.70;;;;;;;;;;6148132;28;20054;-83
2024/03/20 13:53:28;;;;;;;4.47;2.25;;;;;;;;;;6152982;28;20074;-83
2024/03/20 13:56:30;;;;;;;4.40;2.45;;;;;;;;;;6150947;28;20039;-84
2024/03/20 13:59:32;;;;;;;5.55;4.13;;;;;;;;;;6145990;28;20553;-83
2024/03/20 14:02:36;;;;;;;2.85;1.88;;;;;;;;;;6148547;28;20165;-83
2024/03/20 14:05:39;;;;;;;4.57;2.50;;;;;;;;;;6135117;28;20051;-83
2024/03/20 14:08:44;;;;;;;2.25;1.02;;;;;;;;;;6144768;28;20062;-83
2024/03/20 14:11:46;;;;;;;5.70;2.80;;;;;;;;;;6169161;28;20074;-83
2024/03/20 14:14:49;;;;;;;7.10;3.05;;;;;;;;;;6168668;28;20043;-83
2024/03/20 14:18:00;;;;;;;6.93;3.58;;;;;;;;;;6151146;28;20118;-84
2024/03/20 14:21:14;;;;;;;4.38;1.80;;;;;;;;;;6154960;28;20051;-84
2024/03/20 14:24:18;;;;;;;4.65;2.55;;;;;;;;;;6137443;28;20093;-84
2024/03/20 14:32:36;;;;;;;3.30;1.77;;;;;;;;;;6179438;28;20018;-83
2024/03/20 14:35:39;;;;;;;2.88;1.73;;;;;;;;;;6166936;28;20046;-83
2024/03/20 14:39:14;;;;;;;3.42;1.25;;;;;;;;;;6167532;28;20529;-83
2024/03/20 14:42:53;;;;;;;3.17;1.65;;;;;;;;;;6182443;28;20591;-83
2024/03/20 14:45:55;;;;;;;7.63;2.28;;;;;;;;;;6191032;28;20051;-84
2024/03/20 14:48:58;;;;;;;4.03;1.60;;;;;;;;;;6171075;28;20054;-82
2024/03/20 14:52:00;;;;;;;3.97;2.25;;;;;;;;;;6176374;28;20070;-83
2024/03/20 14:55:05;;;;;;;3.50;1.92;;;;;;;;;;6201221;28;20058;-83
2024/03/20 14:58:06;;;;;;;3.55;1.45;;;;;;;;;;6160849;28;20065;-83
2024/03/20 15:01:14;;;;;;;3.20;1.20;;;;;;;;;;6180997;28;20050;-82
2024/03/20 15:04:15;;;;;;;3.08;1.23;;;;;;;;;;6173110;28;20073;-83
2024/03/20 15:07:19;;;;;;;3.10;1.10;;;;;;;;;;6178383;28;20049;-83
2024/03/20 15:10:20;;;;;;;5.38;1.65;;;;;;;;;;6144471;28;20051;-83
2024/03/20 15:13:21;;;;;;;13.15;6.22;;;;;;;;;;6161518;28;20499;-82
2024/03/20 15:16:25;;;;;;;5.93;3.05;;;;;;;;;;6163473;28;20038;-83
2024/03/20 15:19:26;;;;;;;3.50;1.65;;;;;;;;;;6123659;28;20875;-83
2024/03/20 15:22:28;;;;;;;2.95;1.23;;;;;;;;;;6164426;28;20547;-83
2024/03/20 15:25:30;;;;;;;2.25;1.33;;;;;;;;;;6146757;28;20058;-83
2024/03/20 15:28:32;;;;;;;4.78;1.70;;;;;;;;;;6154466;28;20047;-83
2024/03/20 15:31:36;;;;;;;2.83;1.05;;;;;;;;;;6163864;28;20054;-84
2024/03/20 15:34:37;;;;;;;2.88;1.23;;;;;;;;;;6143756;28;20043;-82
2024/03/20 15:37:38;;;;;;;2.85;1.42;;;;;;;;;;6143875;28;20460;-83
2024/03/20 15:40:40;;;;;;;2.63;1.05;;;;;;;;;;6126011;28;20083;-83
2024/03/20 15:43:43;;;;;;;5.80;3.30;;;;;;;;;;6157843;28;20061;-83
2024/03/20 15:46:45;;;;;;;2.13;1.25;;;;;;;;;;6159630;28;20149;-83
2024/03/20 15:49:49;;;;;;;3.15;1.70;;;;;;;;;;6165078;28;20053;-84
2024/03/20 15:52:54;;;;;;;4.70;2.63;;;;;;;;;;6144893;28;20058;-82
2024/03/20 15:56:00;;;;;;;5.35;3.38;;;;;;;;;;6154113;28;20054;-82
2024/03/20 15:59:01;;;;;;;5.97;1.40;;;;;;;;;;6174860;28;20570;-83
2024/03/20 16:02:02;;;;;;;7.32;4.13;;;;;;;;;;6149554;28;20043;-82
2024/03/20 16:05:07;;;;;;;5.03;2.35;;;;;;;;;;6159980;28;20049;-83
2024/03/20 16:08:09;;;;;;;9.15;6.18;;;;;;;;;;6129842;28;20615;-82
2024/03/20 16:11:11;;;;;;;4.80;1.90;;;;;;;;;;6141416;28;20054;-83
2024/03/20 16:14:13;;;;;;;3.60;2.75;;;;;;;;;;6122508;28;20126;-83
2024/03/20 16:17:17;;;;;;;5.72;3.08;;;;;;;;;;6161129;28;20585;-82
2024/03/20 16:20:19;;;;;;;9.73;3.70;;;;;;;;;;6145104;28;20055;-83
2024/03/20 16:23:21;;;;;;;9.02;4.03;;;;;;;;;;6143053;28;20591;-83
2024/03/20 16:26:24;;;;;;;7.20;3.00;;;;;;;;;;6128082;28;20047;-83
2024/03/20 16:29:26;;;;;;;6.55;3.60;;;;;;;;;;6140416;28;20146;-83
2024/03/20 16:32:27;;;;;;;5.05;2.70;;;;;;;;;;6143923;28;20812;-83
2024/03/20 16:35:30;;;;;;;8.23;2.90;;;;;;;;;;6159230;28;20142;-83
2024/03/20 16:38:32;;;;;;;8.30;4.00;;;;;;;;;;6158005;28;20521;-83
2024/03/20 16:41:33;;;;;;;8.38;3.42;;;;;;;;;;6144502;28;20038;-83
2024/03/20 16:44:37;;;;;;;7.55;4.20;;;;;;;;;;6152497;28;20050;-83
2024/03/20 16:47:39;;;;;;;5.88;3.75;;;;;;;;;;6187976;28;20058;-84
2024/03/20 16:50:41;;;;;;;4.63;2.88;;;;;;;;;;6168660;28;20043;-82
2024/03/20 16:53:43;;;;;;;10.98;4.40;;;;;;;;;;6133171;28;20138;-82
2024/03/20 16:56:46;;;;;;;36.90;8.25;;;;;;;;;;6149753;28;20596;-81
2024/03/20 16:59:53;;;;;;;15.60;7.03;;;;;;;;;;6160319;28;20749;-82
2024/03/20 17:02:56;;;;;;;16.17;5.22;;;;;;;;;;6160443;28;20051;-83
2024/03/20 17:05:57;;;;;;;15.32;6.28;;;;;;;;;;6154958;28;20201;-83
2024/03/20 17:08:59;;;;;;;28.00;10.80;;;;;;;;;;6143520;28;20047;-82
2024/03/20 17:12:01;;;;;;;25.65;9.35;;;;;;;;;;6143644;28;20582;-82
2024/03/20 17:15:07;;;;;;;24.80;11.43;;;;;;;;;;6143425;28;20063;-82
2024/03/20 17:18:09;;;;;;;21.35;9.90;;;;;;;;;;6143904;28;20759;-82
2024/03/20 17:21:10;;;;;;;15.52;9.40;;;;;;;;;;6155742;28;20524;-82
2024/03/20 17:24:11;;;;;;;30.10;14.65;;;;;;;;;;6143966;28;20050;-82
2024/03/20 17:27:13;;;;;;;26.35;13.52;;;;;;;;;;6142375;28;20449;-82
2024/03/20 17:30:15;;;;;;;22.45;9.60;;;;;;;;;;6144158;28;20043;-82
2024/03/20 17:33:17;;;;;;;19.13;9.80;;;;;;;;;;6127547;28;20463;-82
2024/03/20 17:36:18;;;;;;;27.65;11.15;;;;;;;;;;6158280;28;20035;-82
2024/03/20 17:39:21;;;;;;;32.30;12.25;;;;;;;;;;6143124;28;20190;-83
2024/03/20 17:42:27;;;;;;;38.33;18.00;;;;;;;;;;6161870;28;20051;-83
2024/03/20 17:45:29;;;;;;;33.22;16.38;;;;;;;;;;6149781;28;20043;-81
2024/03/20 17:48:30;;;;;;;19.08;9.35;;;;;;;;;;6145423;28;20046;-81
2024/03/20 17:51:32;;;;;;;14.27;7.18;;;;;;;;;;6141690;28;20053;-81
2024/03/20 17:54:34;;;;;;;14.35;6.47;;;;;;;;;;6151307;28;20099;-81
2024/03/20 17:57:36;;;;;;;10.07;4.00;;;;;;;;;;6157450;28;20047;-81
2024/03/20 18:00:37;;;;;;;10.20;4.50;;;;;;;;;;6159955;28;20930;-80
2024/03/20 18:03:39;;;;;;;7.40;4.28;;;;;;;;;;6139748;28;20110;-81
2024/03/20 18:06:40;;;;;;;10.05;4.05;;;;;;;;;;6158183;28;20559;-80
2024/03/20 18:09:45;;;;;;;12.45;4.38;;;;;;;;;;6161968;28;20962;-81
2024/03/20 18:12:48;;;;;;;10.98;4.47;;;;;;;;;;6129035;28;20158;-80
2024/03/20 18:15:54;;;;;;;15.50;4.60;;;;;;;;;;6156649;28;20773;-81
2024/03/20 18:18:56;;;;;;;20.23;6.88;;;;;;;;;;6141340;28;20047;-81
2024/03/20 18:21:58;;;;;;;35.42;15.60;;;;;;;;;;6130117;28;20049;-81